createdAt,value
2019-06-29T00:00:10.437Z,61.46
2019-06-29T00:02:39.957Z,61.70
2019-06-29T00:05:09.728Z,61.71
2019-06-29T00:07:39.249Z,59.73
2019-06-29T00:10:09.300Z,60.31
2019-06-29T00:12:39.088Z,61.85
2019-06-29T00:15:08.830Z,59.85
2019-06-29T00:17:38.338Z,60.57
2019-06-29T00:20:08.183Z,61.21
2019-06-29T00:22:37.774Z,62.78
2019-06-29T00:25:08.509Z,63.13
2019-06-29T00:27:38.020Z,64.94
2019-06-29T00:30:11.348Z,65.91
2019-06-29T00:32:40.857Z,62.99
2019-06-29T00:35:10.527Z,65.60
2019-06-29T00:37:40.050Z,61.93
2019-06-29T00:40:10.821Z,65.20
2019-06-29T00:42:40.403Z,64.08
2019-06-29T00:45:10.237Z,65.59
2019-06-29T00:47:39.843Z,67.98
2019-06-29T00:50:09.677Z,66.34
2019-06-29T00:52:39.258Z,65.84
2019-06-29T00:55:08.999Z,62.14
2019-06-29T00:57:38.505Z,61.56
2019-06-29T01:00:09.350Z,63.12
2019-06-29T01:02:39.025Z,61.24
2019-06-29T01:05:08.902Z,64.55
2019-06-29T01:07:38.403Z,65.70
2019-06-29T01:10:10.449Z,63.23
2019-06-29T01:12:40.029Z,63.94
2019-06-29T01:15:10.770Z,61.65
2019-06-29T01:17:40.348Z,62.75
2019-06-29T01:20:10.648Z,65.45
2019-06-29T01:22:40.259Z,61.48
2019-06-29T01:25:10.298Z,64.37
2019-06-29T01:27:39.875Z,68.42
2019-06-29T01:30:10.809Z,66.82
2019-06-29T01:32:40.309Z,67.50
2019-06-29T01:35:10.848Z,65.54
2019-06-29T01:37:40.359Z,63.78
2019-06-29T01:40:11.406Z,65.51
2019-06-29T01:42:40.912Z,64.23
2019-06-29T01:45:10.960Z,68.54
2019-06-29T01:50:11.110Z,66.86
2019-06-29T01:52:40.620Z,64.89
2019-06-29T01:55:10.656Z,62.67
2019-06-29T01:57:40.246Z,66.38
2019-06-29T02:00:10.047Z,63.66
2019-06-29T02:02:39.639Z,64.37
2019-06-29T02:05:09.772Z,66.14
2019-06-29T02:07:39.840Z,65.01
2019-06-29T02:10:11.850Z,69.71
2019-06-29T02:12:41.357Z,68.13
2019-06-29T02:15:11.235Z,70.08
2019-06-29T02:17:41.042Z,67.33
2019-06-29T02:20:13.621Z,71.20
2019-06-29T02:22:43.158Z,68.78
2019-06-29T02:25:16.932Z,65.74
2019-06-29T02:27:44.213Z,65.28
2019-06-29T02:30:14.724Z,68.77
2019-06-29T02:32:44.338Z,65.29
2019-06-29T02:35:13.971Z,70.60
2019-06-29T02:37:43.516Z,68.77
2019-06-29T02:40:16.980Z,66.34
2019-06-29T02:42:46.515Z,66.90
2019-06-29T02:45:16.629Z,67.21
2019-06-29T02:47:46.156Z,65.08
2019-06-29T02:50:17.195Z,70.47
2019-06-29T02:52:46.742Z,67.64
2019-06-29T02:55:37.049Z,71.37
2019-06-29T02:57:49.697Z,68.56
2019-06-29T03:00:19.361Z,68.26
2019-06-29T03:02:48.891Z,65.70
2019-06-29T03:05:18.403Z,74.00
2019-06-29T03:07:47.940Z,68.17
2019-06-29T03:10:17.594Z,67.92
2019-06-29T03:12:47.127Z,67.16
2019-06-29T03:15:16.770Z,67.40
2019-06-29T03:17:46.298Z,68.09
2019-06-29T03:20:16.620Z,68.36
2019-06-29T03:22:46.150Z,66.76
2019-06-29T03:25:15.897Z,67.92
2019-06-29T03:27:45.426Z,67.75
2019-06-29T03:30:15.384Z,68.29
2019-06-29T03:32:44.955Z,67.69
2019-06-29T03:35:15.303Z,69.59
2019-06-29T03:37:44.837Z,68.33
2019-06-29T03:40:14.692Z,66.92
2019-06-29T03:42:44.289Z,67.55
2019-06-29T03:45:14.795Z,65.50
2019-06-29T03:47:44.405Z,67.93
2019-06-29T03:50:14.042Z,66.21
2019-06-29T03:52:43.780Z,67.15
2019-06-29T03:55:15.516Z,66.92
2019-06-29T03:57:45.113Z,70.21
2019-06-29T04:00:16.038Z,68.12
2019-06-29T04:03:03.963Z,68.54
2019-06-29T04:05:55.496Z,66.94
2019-06-29T04:08:59.120Z,70.09
2019-06-29T04:11:51.215Z,69.60
2019-06-29T04:14:43.742Z,69.80
2019-06-29T04:17:23.749Z,69.23
2019-06-29T04:20:09.542Z,67.98
2019-06-29T04:23:12.568Z,67.77
2019-06-29T04:26:07.866Z,69.27
2019-06-29T04:29:00.143Z,68.32
2019-06-29T04:31:59.990Z,69.64
2019-06-29T04:35:00.170Z,72.62
2019-06-29T04:37:43.318Z,72.34
2019-06-29T04:40:41.826Z,67.74
2019-06-29T04:43:13.774Z,68.64
2019-06-29T04:45:43.685Z,67.62
2019-06-29T04:48:13.292Z,70.39
2019-06-29T04:50:42.971Z,68.30
2019-06-29T04:53:12.572Z,68.56
2019-06-29T04:55:42.550Z,69.63
2019-06-29T04:58:13.029Z,69.62
2019-06-29T05:00:44.486Z,65.95
2019-06-29T05:03:14.014Z,69.41
2019-06-29T05:05:43.539Z,67.50
2019-06-29T05:08:13.141Z,69.52
2019-06-29T05:10:44.331Z,67.85
2019-06-29T05:13:13.922Z,68.28
2019-06-29T05:15:43.436Z,67.08
2019-06-29T05:18:12.964Z,66.19
2019-06-29T05:20:42.558Z,66.75
2019-06-29T05:23:12.292Z,67.01
2019-06-29T05:25:42.008Z,66.76
2019-06-29T05:28:11.609Z,66.93
2019-06-29T05:30:41.122Z,67.82
2019-06-29T05:33:10.715Z,66.62
2019-06-29T05:35:40.363Z,65.85
2019-06-29T05:38:09.900Z,68.84
2019-06-29T05:40:39.406Z,67.06
2019-06-29T05:43:08.988Z,68.14
2019-06-29T05:45:38.515Z,68.26
2019-06-29T05:48:08.018Z,68.22
2019-06-29T05:50:37.550Z,67.03
2019-06-29T05:53:07.132Z,68.96
2019-06-29T05:55:36.667Z,68.35
2019-06-29T05:58:06.242Z,69.31
2019-06-29T06:00:39.832Z,66.37
2019-06-29T06:03:09.409Z,66.89
2019-06-29T06:05:38.949Z,65.93
2019-06-29T06:08:08.454Z,67.82
2019-06-29T06:10:37.990Z,64.04
2019-06-29T06:13:07.522Z,64.21
2019-06-29T06:15:37.176Z,66.46
2019-06-29T06:18:06.937Z,63.79
2019-06-29T06:20:37.070Z,66.30
2019-06-29T06:23:06.824Z,66.17
2019-06-29T06:25:36.769Z,64.39
2019-06-29T06:28:06.558Z,62.22
2019-06-29T06:30:36.264Z,65.70
2019-06-29T06:33:06.251Z,66.47
2019-06-29T06:35:36.177Z,66.31
2019-06-29T06:38:06.031Z,63.14
2019-06-29T06:40:35.563Z,63.47
2019-06-29T06:43:05.142Z,64.51
2019-06-29T06:45:34.675Z,62.91
2019-06-29T06:48:04.255Z,60.12
2019-06-29T06:50:33.789Z,65.58
2019-06-29T06:53:03.301Z,61.84
2019-06-29T06:55:32.837Z,66.53
2019-06-29T06:58:02.349Z,63.90
2019-06-29T07:00:31.883Z,64.98
2019-06-29T07:03:01.393Z,64.08
2019-06-29T07:05:30.980Z,61.42
2019-06-29T07:08:00.495Z,61.62
2019-06-29T07:10:30.058Z,61.22
2019-06-29T07:12:59.613Z,64.41
2019-06-29T07:15:29.151Z,61.13
2019-06-29T07:18:02.054Z,59.49
2019-06-29T07:20:29.928Z,62.15
2019-06-29T07:22:59.617Z,61.40
2019-06-29T07:25:29.278Z,62.40
2019-06-29T07:28:18.139Z,61.56
2019-06-29T07:30:47.976Z,59.89
2019-06-29T07:33:17.851Z,60.81
2019-06-29T07:35:47.685Z,59.74
2019-06-29T07:38:17.237Z,58.82
2019-06-29T07:40:46.951Z,58.37
2019-06-29T07:43:16.755Z,57.38
2019-06-29T07:45:46.287Z,58.26
2019-06-29T07:48:18.590Z,56.34
2019-06-29T07:50:54.944Z,56.33
2019-06-29T07:53:25.891Z,58.33
2019-06-29T07:56:20.862Z,56.54
2019-06-29T07:58:50.374Z,56.23
2019-06-29T08:01:19.976Z,56.09
2019-06-29T08:03:49.620Z,55.94
2019-06-29T08:06:19.153Z,54.55
2019-06-29T08:08:48.653Z,54.56
2019-06-29T08:11:18.274Z,53.87
2019-06-29T08:13:47.776Z,54.93
2019-06-29T08:16:17.455Z,53.70
2019-06-29T08:18:46.958Z,52.74
2019-06-29T08:21:16.494Z,53.59
2019-06-29T08:23:46.136Z,53.41
2019-06-29T08:26:16.307Z,54.44
2019-06-29T08:28:46.550Z,52.94
2019-06-29T08:31:16.419Z,52.60
2019-06-29T08:33:45.930Z,52.46
2019-06-29T08:36:15.521Z,52.53
2019-06-29T08:38:45.139Z,51.19
2019-06-29T08:41:14.825Z,52.77
2019-06-29T08:43:44.355Z,52.76
2019-06-29T08:46:13.876Z,51.52
2019-06-29T08:48:43.478Z,51.61
2019-06-29T08:51:12.993Z,51.20
2019-06-29T08:53:42.525Z,51.22
2019-06-29T08:56:13.401Z,51.01
2019-06-29T08:58:53.428Z,51.30
2019-06-29T09:01:14.474Z,50.82
2019-06-29T09:03:44.011Z,50.59
2019-06-29T09:06:13.533Z,49.61
2019-06-29T09:08:43.419Z,50.11
2019-06-29T09:11:12.943Z,50.23
2019-06-29T09:13:42.581Z,50.51
2019-06-29T09:16:12.139Z,50.74
2019-06-29T09:18:41.687Z,51.04
2019-06-29T09:21:11.202Z,51.03
2019-06-29T09:23:40.740Z,50.86
2019-06-29T09:26:10.258Z,50.92
2019-06-29T09:28:39.789Z,51.21
2019-06-29T09:31:11.854Z,51.00
2019-06-29T09:33:42.209Z,51.28
2019-06-29T09:36:11.808Z,50.84
2019-06-29T09:38:41.875Z,50.71
2019-06-29T09:41:12.019Z,50.27
2019-06-29T09:43:44.939Z,50.14
2019-06-29T09:46:12.924Z,49.98
2019-06-29T09:48:42.775Z,49.33
2019-06-29T09:51:15.275Z,48.87
2019-06-29T09:53:43.690Z,48.17
2019-06-29T09:56:13.267Z,47.83
2019-06-29T09:58:42.815Z,48.18
2019-06-29T10:01:12.700Z,47.10
2019-06-29T10:03:45.256Z,47.50
2019-06-29T10:06:13.595Z,47.54
2019-06-29T10:08:43.134Z,47.15
2019-06-29T10:11:12.654Z,46.80
2019-06-29T10:13:45.050Z,46.92
2019-06-29T10:16:15.271Z,46.63
2019-06-29T10:18:44.715Z,46.73
2019-06-29T10:21:14.514Z,47.18
2019-06-29T10:23:44.050Z,46.48
2019-06-29T10:26:13.601Z,46.61
2019-06-29T10:28:43.591Z,46.46
2019-06-29T10:31:13.193Z,46.72
2019-06-29T10:33:42.738Z,47.07
2019-06-29T10:36:12.326Z,47.17
2019-06-29T10:38:42.218Z,46.87
2019-06-29T10:41:11.997Z,46.47
2019-06-29T10:43:42.152Z,46.10
2019-06-29T10:46:12.829Z,45.08
2019-06-29T10:48:42.802Z,45.36
2019-06-29T10:51:12.318Z,45.63
2019-06-29T10:53:42.506Z,45.12
2019-06-29T10:56:12.568Z,44.67
2019-06-29T10:58:42.615Z,44.96
2019-06-29T11:01:12.770Z,43.53
2019-06-29T11:03:42.832Z,41.37
2019-06-29T11:06:15.462Z,42.43
2019-06-29T11:08:43.593Z,42.19
2019-06-29T11:11:13.111Z,42.14
2019-06-29T11:13:43.242Z,42.21
2019-06-29T11:16:13.107Z,41.29
2019-06-29T11:18:43.038Z,40.44
2019-06-29T11:21:12.985Z,40.66
2019-06-29T11:23:42.711Z,40.96
2019-06-29T11:26:14.273Z,40.74
2019-06-29T11:28:43.724Z,40.50
2019-06-29T11:31:19.721Z,39.93
2019-06-29T11:33:44.885Z,38.85
2019-06-29T11:36:14.478Z,39.67
2019-06-29T11:38:44.091Z,38.31
2019-06-29T11:41:13.677Z,39.24
2019-06-29T11:43:43.596Z,40.03
2019-06-29T11:46:13.314Z,39.80
2019-06-29T11:48:44.668Z,39.89
2019-06-29T11:51:15.131Z,40.03
2019-06-29T11:53:44.857Z,38.05
2019-06-29T11:56:27.557Z,39.13
2019-06-29T11:58:45.613Z,39.34
2019-06-29T12:01:15.122Z,39.16
2019-06-29T12:03:44.659Z,36.14
2019-06-29T12:06:15.886Z,35.36
2019-06-29T12:08:45.589Z,33.96
2019-06-29T12:11:15.104Z,31.94
2019-06-29T12:13:44.645Z,30.36
2019-06-29T12:16:14.159Z,28.07
2019-06-29T12:18:44.235Z,25.20
2019-06-29T12:21:14.157Z,26.01
2019-06-29T12:23:43.693Z,24.71
2019-06-29T12:26:13.260Z,24.66
2019-06-29T12:28:43.043Z,23.65
2019-06-29T12:31:14.375Z,21.27
2019-06-29T12:33:43.818Z,22.30
2019-06-29T12:36:13.389Z,21.37
2019-06-29T12:38:45.316Z,22.71
2019-06-29T12:41:14.503Z,21.19
2019-06-29T12:43:44.690Z,21.78
2019-06-29T12:46:14.318Z,19.42
2019-06-29T12:48:43.858Z,17.94
2019-06-29T12:51:13.443Z,17.24
2019-06-29T12:53:42.978Z,18.98
2019-06-29T12:56:12.560Z,20.01
2019-06-29T12:58:42.073Z,19.77
2019-06-29T13:01:19.829Z,15.60
2019-06-29T13:03:42.868Z,16.47
2019-06-29T13:06:12.376Z,15.95
2019-06-29T13:08:41.891Z,16.66
2019-06-29T13:11:11.423Z,18.03
2019-06-29T13:13:41.208Z,17.29
2019-06-29T13:16:10.805Z,19.15
2019-06-29T13:18:40.334Z,19.11
2019-06-29T13:21:09.938Z,20.26
2019-06-29T13:23:39.435Z,21.54
2019-06-29T13:26:08.971Z,23.09
2019-06-29T13:28:38.552Z,23.22
2019-06-29T13:31:08.085Z,23.08
2019-06-29T13:33:37.677Z,23.90
2019-06-29T13:36:07.318Z,24.47
2019-06-29T13:38:37.098Z,23.63
2019-06-29T13:41:06.629Z,24.79
2019-06-29T13:43:36.241Z,25.53
2019-06-29T13:46:05.887Z,24.99
2019-06-29T13:48:35.468Z,25.30
2019-06-29T13:51:05.065Z,25.12
2019-06-29T13:53:34.573Z,25.91
2019-06-29T13:56:04.109Z,25.07
2019-06-29T13:58:33.604Z,25.32
2019-06-29T14:01:03.145Z,25.94
2019-06-29T14:03:32.645Z,26.44
2019-06-29T14:06:02.252Z,26.57
2019-06-29T14:08:31.768Z,26.86
2019-06-29T14:11:01.363Z,27.51
2019-06-29T14:13:33.417Z,27.69
2019-06-29T14:16:02.590Z,28.25
2019-06-29T14:18:32.207Z,28.57
2019-06-29T14:21:02.018Z,28.38
2019-06-29T14:23:31.651Z,27.26
2019-06-29T14:26:01.218Z,28.35
2019-06-29T14:28:30.771Z,28.31
2019-06-29T14:31:00.572Z,28.46
2019-06-29T14:33:30.080Z,28.79
2019-06-29T14:35:59.607Z,28.37
2019-06-29T14:38:29.131Z,28.70
2019-06-29T14:41:03.547Z,29.21
2019-06-29T14:43:49.306Z,29.14
2019-06-29T14:46:18.828Z,29.29
2019-06-29T14:48:48.341Z,29.23
2019-06-29T14:51:17.883Z,28.58
2019-06-29T14:53:47.400Z,26.61
2019-06-29T14:56:16.998Z,26.98
2019-06-29T14:58:46.533Z,27.98
2019-06-29T15:01:16.097Z,27.73
2019-06-29T15:03:45.599Z,26.87
2019-06-29T15:06:15.137Z,28.50
2019-06-29T15:08:44.651Z,28.42
2019-06-29T15:11:14.178Z,29.31
2019-06-29T15:13:43.696Z,27.78
2019-06-29T15:16:13.333Z,27.50
2019-06-29T15:18:42.857Z,28.44
2019-06-29T15:21:12.661Z,28.45
2019-06-29T15:23:42.263Z,28.41
2019-06-29T15:26:11.800Z,28.05
2019-06-29T15:28:41.317Z,28.41
2019-06-29T15:31:10.852Z,27.83
2019-06-29T15:33:40.374Z,27.93
2019-06-29T15:36:09.885Z,27.48
2019-06-29T15:38:39.421Z,28.26
2019-06-29T15:41:08.931Z,28.71
2019-06-29T15:43:38.546Z,28.02
2019-06-29T15:46:08.199Z,27.96
2019-06-29T15:48:37.805Z,28.51
2019-06-29T15:51:07.303Z,27.14
2019-06-29T15:53:36.914Z,28.28
2019-06-29T15:56:06.434Z,29.30
2019-06-29T15:58:36.196Z,28.52
2019-06-29T16:01:06.074Z,28.92
2019-06-29T16:03:35.604Z,28.79
2019-06-29T16:06:05.290Z,28.95
2019-06-29T16:08:35.200Z,29.25
2019-06-29T16:11:05.296Z,29.76
2019-06-29T16:13:34.827Z,28.68
2019-06-29T16:16:05.206Z,29.02
2019-06-29T16:18:36.072Z,30.20
2019-06-29T16:21:07.637Z,30.45
2019-06-29T16:23:37.187Z,29.84
2019-06-29T16:26:06.794Z,29.80
2019-06-29T16:28:36.339Z,30.92
2019-06-29T16:31:06.015Z,30.27
2019-06-29T16:33:35.607Z,29.59
2019-06-29T16:36:05.269Z,30.70
2019-06-29T16:38:35.301Z,29.06
2019-06-29T16:41:04.955Z,30.06
2019-06-29T16:43:36.125Z,29.96
2019-06-29T16:46:05.711Z,29.96
2019-06-29T16:48:35.251Z,31.30
2019-06-29T16:51:04.762Z,30.87
2019-06-29T16:53:35.868Z,31.05
2019-06-29T16:56:05.458Z,30.28
2019-06-29T16:58:34.991Z,29.41
2019-06-29T17:01:04.502Z,30.15
2019-06-29T17:03:38.176Z,31.67
2019-06-29T17:06:05.467Z,31.38
2019-06-29T17:08:35.016Z,31.22
2019-06-29T17:11:04.520Z,30.73
2019-06-29T17:13:34.071Z,30.37
2019-06-29T17:16:03.593Z,30.63
2019-06-29T17:18:33.174Z,30.51
2019-06-29T17:21:02.714Z,29.84
2019-06-29T17:23:32.244Z,30.08
2019-06-29T17:26:01.754Z,30.49
2019-06-29T17:28:31.292Z,32.10
2019-06-29T17:31:01.132Z,30.79
2019-06-29T17:33:30.668Z,31.24
2019-06-29T17:36:00.177Z,31.36
2019-06-29T17:38:29.713Z,31.45
2019-06-29T17:40:59.216Z,31.49
2019-06-29T17:43:28.749Z,31.67
2019-06-29T17:45:58.260Z,32.14
2019-06-29T17:48:27.793Z,32.24
2019-06-29T17:50:57.300Z,31.49
2019-06-29T17:53:26.901Z,32.07
2019-06-29T17:55:56.415Z,31.95
2019-06-29T17:58:25.955Z,31.70
2019-06-29T18:00:55.463Z,31.05
2019-06-29T18:03:25.301Z,31.50
2019-06-29T18:05:54.810Z,30.79
2019-06-29T18:08:24.724Z,30.71
2019-06-29T18:10:54.230Z,30.62
2019-06-29T18:13:23.801Z,30.63
2019-06-29T18:15:53.433Z,31.07
2019-06-29T18:18:22.979Z,31.36
2019-06-29T18:20:52.544Z,31.72
2019-06-29T18:23:22.113Z,32.03
2019-06-29T18:25:51.627Z,32.30
2019-06-29T18:28:21.174Z,32.65
2019-06-29T18:30:50.692Z,32.71
2019-06-29T18:33:20.201Z,33.12
2019-06-29T18:35:49.735Z,33.67
2019-06-29T18:38:19.241Z,33.44
2019-06-29T18:40:48.775Z,33.79
2019-06-29T18:43:18.290Z,34.14
2019-06-29T18:45:47.824Z,33.86
2019-06-29T18:48:17.402Z,33.75
2019-06-29T18:50:46.938Z,33.92
2019-06-29T18:53:16.449Z,34.36
2019-06-29T18:55:45.989Z,34.51
2019-06-29T18:58:15.502Z,34.88
2019-06-29T19:00:45.029Z,35.15
2019-06-29T19:03:14.539Z,35.36
2019-06-29T19:05:44.075Z,35.63
2019-06-29T19:08:13.655Z,35.82
2019-06-29T19:10:43.187Z,36.62
2019-06-29T19:13:12.693Z,36.75
2019-06-29T19:15:42.236Z,36.69
2019-06-29T19:18:11.755Z,37.33
2019-06-29T19:20:41.302Z,37.62
2019-06-29T19:23:10.822Z,37.54
2019-06-29T19:25:40.371Z,37.77
2019-06-29T19:28:09.906Z,37.89
2019-06-29T19:30:39.494Z,37.76
2019-06-29T19:33:09.089Z,37.84
2019-06-29T19:35:38.627Z,38.48
2019-06-29T19:38:08.133Z,38.83
2019-06-29T19:40:37.662Z,38.87
2019-06-29T19:43:07.184Z,39.21
2019-06-29T19:45:36.715Z,39.61
2019-06-29T19:48:06.509Z,39.64
2019-06-29T19:50:36.044Z,39.96
2019-06-29T19:53:05.629Z,39.89
2019-06-29T19:55:35.229Z,40.12
2019-06-29T19:58:04.749Z,40.52
2019-06-29T20:00:34.280Z,40.50
2019-06-29T20:03:05.278Z,40.59
2019-06-29T20:05:34.816Z,40.75
2019-06-29T20:08:04.338Z,41.32
2019-06-29T20:10:33.879Z,41.92
2019-06-29T20:13:03.390Z,42.39
2019-06-29T20:15:32.919Z,43.45
2019-06-29T20:18:02.442Z,44.05
2019-06-29T20:20:31.963Z,43.56
2019-06-29T20:23:01.477Z,43.74
2019-06-29T20:25:31.003Z,44.19
2019-06-29T20:28:00.517Z,44.48
2019-06-29T20:30:30.051Z,44.66
2019-06-29T20:32:59.557Z,44.82
2019-06-29T20:35:33.220Z,45.06
2019-06-29T20:38:00.327Z,45.60
2019-06-29T20:40:29.856Z,45.82
2019-06-29T20:42:59.387Z,46.91
2019-06-29T20:45:28.928Z,46.55
2019-06-29T20:47:58.441Z,45.78
2019-06-29T20:50:28.330Z,47.02
2019-06-29T20:52:57.836Z,45.78
2019-06-29T20:55:27.345Z,45.90
2019-06-29T20:57:56.885Z,46.32
2019-06-29T21:00:29.710Z,46.46
2019-06-29T21:02:57.728Z,47.17
2019-06-29T21:05:27.239Z,47.96
2019-06-29T21:07:56.775Z,48.57
2019-06-29T21:10:26.348Z,48.07
2019-06-29T21:12:55.902Z,47.29
2019-06-29T21:15:25.395Z,47.17
2019-06-29T21:17:54.934Z,48.13
2019-06-29T21:20:24.595Z,48.06
2019-06-29T21:22:54.198Z,48.50
2019-06-29T21:25:23.711Z,48.63
2019-06-29T21:27:53.254Z,50.12
2019-06-29T21:30:23.364Z,48.90
2019-06-29T21:32:52.965Z,49.13
2019-06-29T21:35:22.820Z,49.11
2019-06-29T21:37:52.354Z,49.26
2019-06-29T21:40:21.933Z,49.70
2019-06-29T21:42:51.475Z,49.32
2019-06-29T21:45:21.111Z,49.49
2019-06-29T21:47:50.641Z,50.18
2019-06-29T21:50:20.891Z,50.41
2019-06-29T21:52:50.423Z,50.50
2019-06-29T21:55:19.993Z,50.44
2019-06-29T21:57:49.578Z,51.63
2019-06-29T22:00:22.483Z,51.87
2019-06-29T22:02:52.141Z,53.41
2019-06-29T22:05:21.965Z,53.53
2019-06-29T22:07:51.496Z,52.48
2019-06-29T22:10:21.847Z,52.80
2019-06-29T22:12:51.422Z,53.36
2019-06-29T22:15:21.443Z,56.49
2019-06-29T22:17:50.980Z,54.27
2019-06-29T22:20:20.648Z,54.03
2019-06-29T22:22:50.247Z,54.84
2019-06-29T22:25:20.900Z,56.08
2019-06-29T22:27:50.421Z,57.16
2019-06-29T22:30:23.368Z,55.16
2019-06-29T22:32:57.342Z,55.71
2019-06-29T22:35:24.209Z,56.27
2019-06-29T22:37:53.747Z,57.93
2019-06-29T22:40:23.389Z,58.96
2019-06-29T22:42:53.233Z,56.89
2019-06-29T22:45:22.875Z,55.54
2019-06-29T22:47:52.401Z,58.03
2019-06-29T22:50:22.053Z,55.35
2019-06-29T22:52:51.604Z,56.64
2019-06-29T22:55:21.179Z,56.57
2019-06-29T22:57:50.717Z,57.88
2019-06-29T23:00:22.634Z,59.29
2019-06-29T23:02:52.176Z,57.65
2019-06-29T23:05:21.749Z,58.78
2019-06-29T23:07:51.937Z,59.26
2019-06-29T23:10:21.681Z,59.42
2019-06-29T23:12:51.289Z,59.44
2019-06-29T23:15:21.036Z,59.79
2019-06-29T23:17:50.545Z,58.63
2019-06-29T23:20:23.151Z,58.50
2019-06-29T23:22:52.671Z,59.26
2019-06-29T23:25:22.205Z,58.95
2019-06-29T23:27:51.795Z,58.70
2019-06-29T23:30:21.774Z,59.68
2019-06-29T23:32:51.281Z,59.24
2019-06-29T23:35:20.957Z,59.07
2019-06-29T23:37:50.463Z,59.77
2019-06-29T23:40:20.801Z,60.04
2019-06-29T23:42:50.307Z,59.33
2019-06-29T23:45:20.069Z,59.16
2019-06-29T23:47:49.847Z,59.72
2019-06-29T23:50:19.517Z,59.38
2019-06-29T23:52:49.036Z,59.97
2019-06-29T23:55:19.269Z,61.33
2019-06-29T23:57:49.112Z,60.73
